Time;durP1;ratioP1;P1;durP2;ratioP2;P2;SDS_P1;SDS_P2;PMS_P1;PMS_P2;Temp;Humidity;BMP_temperature;BMP_pressure;BME280_temperature;BME280_humidity;BME280_pressure;Samples;Min_cycle;Max_cycle;Signal;HPM_P1;HPM_P2
2023/02/28 00:00:43;;;;;;;3.90;2.42;;;;;;;-3.18;100.00;99551.25;4952166;28;20027;-68
2023/02/28 00:03:08;;;;;;;4.97;2.42;;;;;;;-3.16;100.00;99559.97;4943532;29;20019;-68
2023/02/28 00:05:33;;;;;;;5.13;2.67;;;;;;;-3.32;100.00;99544.22;4942245;29;20047;-68
2023/02/28 00:07:59;;;;;;;4.00;2.20;;;;;;;-3.17;100.00;99561.75;4948539;28;20034;-68
2023/02/28 00:10:27;;;;;;;4.68;2.60;;;;;;;-3.22;100.00;99557.69;4946509;28;20034;-68
2023/02/28 00:12:56;;;;;;;6.43;2.70;;;;;;;-3.34;100.00;99543.44;4943994;28;20106;-68
2023/02/28 00:15:22;;;;;;;;;;;;;;;-3.24;100.00;99552.50;4952205;28;20019;-68
2023/02/28 00:17:48;;;;;;;4.60;2.53;;;;;;;-3.34;100.00;99539.00;4985764;28;19910;-68
2023/02/28 00:20:13;;;;;;;5.20;2.47;;;;;;;-3.22;100.00;99555.03;4951096;29;20097;-68
2023/02/28 00:22:50;;;;;;;3.97;2.47;;;;;;;-3.22;100.00;99549.75;4942747;28;20034;-68
2023/02/28 00:25:19;;;;;;;3.47;2.28;;;;;;;-3.09;100.00;99553.34;4942600;29;20020;-68
2023/02/28 00:27:45;;;;;;;3.20;2.20;;;;;;;-3.13;100.00;99546.53;4965720;28;20106;-68
2023/02/28 00:30:14;;;;;;;6.35;2.53;;;;;;;-3.06;100.00;99550.47;4948970;29;20050;-68
2023/02/28 00:32:40;;;;;;;6.30;2.50;;;;;;;-3.25;100.00;99529.63;4950111;28;20031;-68
2023/02/28 00:35:06;;;;;;;7.00;2.65;;;;;;;-3.15;100.00;99548.41;4952953;28;20038;-68
2023/02/28 00:37:32;;;;;;;5.75;2.45;;;;;;;-3.17;100.00;99537.94;4951276;29;20023;-68
2023/02/28 00:39:57;;;;;;;8.93;2.60;;;;;;;-3.04;100.00;99545.91;4952222;28;20042;-68
2023/02/28 00:42:23;;;;;;;9.30;2.42;;;;;;;-3.07;100.00;99548.75;4949609;28;20039;-68
2023/02/28 00:44:49;;;;;;;9.35;2.70;;;;;;;-3.14;100.00;99547.47;4949973;28;20031;-68
2023/02/28 00:47:14;;;;;;;5.13;2.78;;;;;;;-3.22;100.00;99539.16;4950807;29;20705;-68
2023/02/28 00:49:39;;;;;;;4.18;2.50;;;;;;;-3.13;100.00;99543.88;4951903;28;20485;-68
2023/02/28 00:52:05;;;;;;;4.13;2.42;;;;;;;-3.10;100.00;99554.25;4944695;29;20603;-68
2023/02/28 00:54:30;;;;;;;4.65;2.40;;;;;;;-3.16;100.00;99523.75;4962223;28;20130;-68
2023/02/28 00:56:55;;;;;;;6.72;2.47;;;;;;;-3.16;100.00;99544.06;4949174;28;20019;-68
2023/02/28 00:59:21;;;;;;;4.50;2.40;;;;;;;-3.22;100.00;99544.44;4951811;28;20038;-68
2023/02/28 01:01:46;;;;;;;5.05;2.47;;;;;;;-3.38;100.00;99524.28;4950309;29;20031;-68
2023/02/28 01:04:13;;;;;;;5.88;2.55;;;;;;;-3.16;100.00;99544.91;4940603;29;20031;-68
2023/02/28 01:06:39;;;;;;;5.15;2.30;;;;;;;-3.16;100.00;99541.44;4936367;29;20402;-68
2023/02/28 01:09:06;;;;;;;6.88;2.58;;;;;;;-3.12;100.00;99532.31;4948926;28;20031;-68
2023/02/28 01:11:32;;;;;;;6.82;2.85;;;;;;;-3.22;100.00;99531.22;4951676;29;20027;-68
2023/02/28 01:13:57;;;;;;;4.90;1.92;;;;;;;-3.39;100.00;99511.97;4950954;28;20030;-68
2023/02/28 01:16:23;;;;;;;5.93;3.20;;;;;;;-3.30;100.00;99529.09;4949492;28;20035;-68
2023/02/28 01:18:48;;;;;;;4.88;2.72;;;;;;;-3.34;100.00;99536.34;4947814;28;20034;-68
2023/02/28 01:21:17;;;;;;;9.50;3.03;;;;;;;-3.54;100.00;99526.19;4944842;28;20027;-68
2023/02/28 01:23:42;;;;;;;3.83;2.22;;;;;;;-3.41;100.00;99539.47;4950850;29;20023;-69
2023/02/28 01:26:11;;;;;;;4.97;2.67;;;;;;;-3.51;100.00;99526.00;4950794;29;20118;-68
2023/02/28 01:28:37;;;;;;;5.85;2.35;;;;;;;-3.55;100.00;99516.56;4949989;28;20062;-68
2023/02/28 01:31:02;;;;;;;3.55;2.40;;;;;;;-3.44;100.00;99532.59;4945184;29;20060;-68
2023/02/28 01:33:28;;;;;;;4.88;2.55;;;;;;;-3.48;100.00;99509.06;4947992;28;20027;-68
2023/02/28 01:36:04;;;;;;;4.55;2.70;;;;;;;-3.48;100.00;99520.53;4948399;29;20054;-68
2023/02/28 01:38:30;;;;;;;3.05;2.10;;;;;;;-3.49;100.00;99517.97;4953211;28;20085;-68
2023/02/28 01:40:56;;;;;;;5.72;2.78;;;;;;;-3.45;100.00;99522.97;4954972;28;20460;-68
2023/02/28 01:43:26;;;;;;;4.53;2.75;;;;;;;-3.43;100.00;99529.00;4947156;28;20055;-68
2023/02/28 01:45:53;;;;;;;4.90;2.55;;;;;;;-3.48;100.00;99517.88;4953849;29;20084;-68
2023/02/28 01:48:20;;;;;;;6.72;3.05;;;;;;;-3.46;100.00;99525.69;4954105;28;20534;-69
2023/02/28 01:50:47;;;;;;;5.45;2.63;;;;;;;-3.57;100.00;99514.00;4954045;28;20089;-69
2023/02/28 01:53:17;;;;;;;6.60;2.40;;;;;;;-3.51;100.00;99520.72;4952248;29;20023;-69
2023/02/28 01:55:46;;;;;;;3.70;2.42;;;;;;;-3.58;100.00;99522.88;4950220;28;20027;-69
2023/02/28 01:58:12;;;;;;;5.93;2.90;;;;;;;-3.66;100.00;99504.00;4948204;28;20488;-69
2023/02/28 02:00:38;;;;;;;5.30;2.88;;;;;;;-3.62;100.00;99504.66;4952011;28;20054;-69
2023/02/28 02:03:10;;;;;;;6.15;2.88;;;;;;;-3.51;100.00;99512.78;4978237;23;20058;-77
2023/02/28 02:05:38;;;;;;;3.90;2.80;;;;;;;-3.45;100.00;99522.97;4944605;29;20028;-77
2023/02/28 02:08:08;;;;;;;6.82;3.03;;;;;;;-3.43;100.00;99515.78;4940398;29;20038;-77
2023/02/28 02:10:39;;;;;;;5.55;2.67;;;;;;;-3.45;100.00;99507.09;4955170;29;20046;-77
2023/02/28 02:13:25;;;;;;;4.63;2.50;;;;;;;-3.34;100.00;99512.53;4972762;28;20533;-75
2023/02/28 02:16:17;;;;;;;5.13;2.83;;;;;;;-3.33;100.00;99506.31;4960053;29;20031;-75
2023/02/28 02:18:49;;;;;;;5.18;2.67;;;;;;;-3.36;100.00;99509.13;4961769;29;20100;-75
2023/02/28 02:21:51;;;;;;;4.78;2.90;;;;;;;-3.42;100.00;99508.69;4969069;28;20027;-75
2023/02/28 02:24:47;;;;;;;5.90;3.08;;;;;;;-3.39;100.00;99505.84;4970429;28;20090;-74
2023/02/28 02:27:39;;;;;;;5.72;3.35;;;;;;;-3.42;100.00;99506.91;4968162;28;20069;-75
2023/02/28 02:30:44;;;;;;;6.47;3.20;;;;;;;-3.39;100.00;99490.81;4995170;28;20066;-75
2023/02/28 02:33:40;;;;;;;10.00;3.25;;;;;;;-3.28;100.00;99499.88;4973792;28;20036;-75
2023/02/28 02:36:12;;;;;;;6.47;3.05;;;;;;;-3.29;100.00;99508.75;4968712;28;20032;-75
2023/02/28 02:38:49;;;;;;;8.32;2.85;;;;;;;-3.31;100.00;99496.47;5014239;28;20054;-75
2023/02/28 02:41:39;;;;;;;7.07;3.00;;;;;;;-3.26;100.00;99508.56;4978738;28;20049;-75
2023/02/28 02:44:18;;;;;;;6.78;2.90;;;;;;;-3.24;100.00;99498.75;4958524;29;20035;-75
2023/02/28 02:46:45;;;;;;;7.07;2.47;;;;;;;-3.24;100.00;99502.22;4953656;29;20034;-75
2023/02/28 02:49:19;;;;;;;6.28;3.30;;;;;;;-3.25;100.00;99486.44;4950814;28;20381;-75
2023/02/28 02:51:47;;;;;;;5.05;3.10;;;;;;;-3.35;100.00;99487.03;4945558;29;20031;-76
2023/02/28 02:54:34;;;;;;;9.18;3.08;;;;;;;-3.22;100.00;99504.75;4939235;28;20477;-75
2023/02/28 02:57:05;;;;;;;9.90;3.45;;;;;;;-3.21;100.00;99487.94;4963566;28;20046;-75
2023/02/28 02:59:33;;;;;;;7.47;3.03;;;;;;;-3.18;100.00;99496.53;4945644;28;20030;-75
2023/02/28 03:02:04;;;;;;;6.18;3.40;;;;;;;-3.15;100.00;99498.13;4948862;28;20070;-75
2023/02/28 03:04:35;;;;;;;6.93;3.38;;;;;;;-3.09;100.00;99488.00;4979144;28;20035;-75
2023/02/28 03:07:00;;;;;;;6.03;3.15;;;;;;;-3.01;100.00;99498.09;4954751;28;20028;-75
2023/02/28 03:09:26;;;;;;;5.25;2.70;;;;;;;-3.00;100.00;99488.34;5042397;28;20025;-75
2023/02/28 03:11:55;;;;;;;6.43;2.90;;;;;;;-2.92;100.00;99486.03;4942809;29;20110;-75
2023/02/28 03:14:46;;;;;;;8.93;2.80;;;;;;;-2.81;100.00;99491.47;4951167;28;20020;-75
2023/02/28 03:17:44;;;;;;;8.30;3.30;;;;;;;-2.77;100.00;99497.44;4940861;28;20020;-75
2023/02/28 03:20:31;;;;;;;8.80;3.10;;;;;;;-2.73;100.00;99491.81;4938858;29;20070;-75
2023/02/28 03:23:21;;;;;;;6.18;2.50;;;;;;;-2.82;100.00;99462.47;4963135;28;20031;-75
2023/02/28 03:25:53;;;;;;;6.70;3.60;;;;;;;-2.63;100.00;99484.09;4941775;29;20042;-75
2023/02/28 03:28:45;;;;;;;5.45;3.22;;;;;;;-2.62;100.00;99491.13;4953469;29;20040;-75
2023/02/28 03:31:19;;;;;;;6.15;2.75;;;;;;;-2.58;100.00;99486.44;4948825;28;20024;-75
2023/02/28 03:33:54;;;;;;;6.00;3.15;;;;;;;-2.50;100.00;99486.78;4946205;28;20038;-75
2023/02/28 03:36:25;;;;;;;5.32;2.80;;;;;;;-2.53;100.00;99485.19;4953680;29;20051;-75
2023/02/28 03:39:08;;;;;;;7.15;2.92;;;;;;;-2.49;100.00;99483.16;4948724;28;20031;-75
2023/02/28 03:41:46;;;;;;;6.53;3.10;;;;;;;-2.53;100.00;99479.03;4950317;28;20781;-75
2023/02/28 03:44:17;;;;;;;6.68;3.42;;;;;;;-2.43;100.00;99493.34;4951192;28;20038;-75
2023/02/28 03:46:51;;;;;;;6.05;3.03;;;;;;;-2.45;100.00;99485.50;4947776;29;20030;-75
2023/02/28 03:49:24;;;;;;;6.93;3.20;;;;;;;-2.38;100.00;99496.56;4937182;28;20062;-75
2023/02/28 03:51:50;;;;;;;6.47;3.20;;;;;;;-2.49;100.00;99491.97;4949976;28;20050;-75
2023/02/28 03:54:21;;;;;;;8.82;3.42;;;;;;;-2.50;100.00;99487.63;4945109;29;20024;-77
2023/02/28 03:56:57;;;;;;;10.93;3.78;;;;;;;-2.49;100.00;99477.84;4943680;29;20392;-75
2023/02/28 03:59:29;;;;;;;5.53;3.45;;;;;;;-2.26;100.00;99494.84;4956539;28;20034;-75
2023/02/28 04:01:55;;;;;;;6.22;3.20;;;;;;;-2.44;100.00;99476.63;4948595;28;20118;-75
2023/02/28 04:04:21;;;;;;;5.80;3.58;;;;;;;-2.25;100.00;99497.41;4938418;28;20066;-75
2023/02/28 04:06:50;;;;;;;6.80;3.35;;;;;;;-2.23;100.00;99491.97;4952201;28;20546;-76
2023/02/28 04:09:34;;;;;;;8.88;3.33;;;;;;;-2.18;100.00;99495.16;4953258;29;20026;-80
2023/02/28 04:12:00;;;;;;;6.50;3.83;;;;;;;-2.17;100.00;99496.88;4946351;28;20093;-76
2023/02/28 04:14:26;;;;;;;7.07;3.22;;;;;;;-2.16;100.00;99498.56;4943770;28;20027;-76
2023/02/28 04:16:52;;;;;;;6.43;3.33;;;;;;;-2.21;100.00;99487.44;4943629;29;20485;-76
2023/02/28 04:19:18;;;;;;;7.35;3.53;;;;;;;-2.25;100.00;99475.34;4945972;28;20150;-77
2023/02/28 04:21:49;;;;;;;8.82;3.55;;;;;;;-2.18;100.00;99491.66;4952127;29;20027;-76
2023/02/28 04:24:17;;;;;;;7.05;3.45;;;;;;;-2.21;100.00;99479.47;4945691;28;20133;-75
2023/02/28 04:26:46;;;;;;;8.60;3.40;;;;;;;-2.21;100.00;99479.47;4942979;29;20042;-75
2023/02/28 04:29:14;;;;;;;3.83;2.63;;;;;;;-2.09;100.00;99505.16;4958657;29;20271;-76
2023/02/28 04:31:39;;;;;;;9.57;4.05;;;;;;;-2.11;100.00;99500.91;4948053;28;20110;-75
2023/02/28 04:34:05;;;;;;;8.48;3.22;;;;;;;-2.05;100.00;99505.78;4949672;29;20109;-75
2023/02/28 04:36:31;;;;;;;5.30;2.95;;;;;;;-2.00;100.00;99499.19;4949632;29;20023;-75
2023/02/28 04:38:56;;;;;;;3.75;2.83;;;;;;;-2.01;100.00;99513.41;4948978;28;20434;-77
2023/02/28 04:41:22;;;;;;;7.72;4.03;;;;;;;-2.20;100.00;99470.59;4950072;28;20034;-78
2023/02/28 04:43:48;;;;;;;5.82;3.20;;;;;;;-2.08;100.00;99480.31;4942730;29;20031;-76
2023/02/28 04:46:13;;;;;;;6.95;3.85;;;;;;;-2.04;100.00;99492.44;4940393;29;20439;-76
2023/02/28 04:48:39;;;;;;;7.15;3.70;;;;;;;-1.98;100.00;99497.28;4933960;29;20042;-75
2023/02/28 04:51:08;;;;;;;8.13;3.55;;;;;;;-1.93;100.00;99504.09;4945850;28;20031;-76
2023/02/28 04:53:34;;;;;;;10.25;3.53;;;;;;;-1.92;100.00;99501.31;4967083;28;20034;-76
2023/02/28 04:55:59;;;;;;;9.25;3.40;;;;;;;-1.98;100.00;99497.28;4939444;28;20035;-76
2023/02/28 04:58:25;;;;;;;7.82;3.65;;;;;;;-2.03;100.00;99480.00;4946005;28;20095;-76
2023/02/28 05:00:51;;;;;;;6.25;3.42;;;;;;;-1.91;100.00;99503.03;4959387;28;20034;-75
2023/02/28 05:03:17;;;;;;;7.95;3.30;;;;;;;-1.96;100.00;99494.53;4956367;28;20023;-75
2023/02/28 05:05:42;;;;;;;5.60;3.08;;;;;;;-1.93;100.00;99482.88;4944507;28;20034;-76
2023/02/28 05:08:09;;;;;;;5.35;3.20;;;;;;;-1.94;100.00;99486.47;4939527;29;20069;-78
2023/02/28 05:10:35;;;;;;;6.70;3.60;;;;;;;-1.93;100.00;99493.47;4950827;28;20472;-78
2023/02/28 05:13:00;;;;;;;6.15;3.38;;;;;;;-1.95;100.00;99484.78;4951704;28;20027;-77
2023/02/28 05:15:25;;;;;;;8.27;3.63;;;;;;;-1.95;100.00;99500.69;4939164;28;20469;-77
2023/02/28 05:17:51;;;;;;;9.50;3.30;;;;;;;-1.87;100.00;99504.50;4954086;29;20098;-77
2023/02/28 05:20:16;;;;;;;9.80;3.88;;;;;;;-2.04;100.00;99481.81;4970492;28;20100;-77
2023/02/28 05:22:43;;;;;;;8.43;3.75;;;;;;;-1.87;100.00;99501.00;4954374;29;20023;-78
2023/02/28 05:25:15;;;;;;;9.45;4.07;;;;;;;-1.88;100.00;99507.28;4949622;29;20020;-77
2023/02/28 05:27:40;;;;;;;8.45;3.78;;;;;;;-2.01;100.00;99488.72;4948281;29;20481;-78
2023/02/28 05:30:10;;;;;;;6.43;3.97;;;;;;;-1.89;100.00;99500.25;4955733;29;20073;-78
2023/02/28 05:32:36;;;;;;;9.02;3.92;;;;;;;-1.89;100.00;99501.09;4962088;28;20444;-75
2023/02/28 05:35:02;;;;;;;5.57;3.65;;;;;;;-1.87;100.00;99498.34;4946755;28;20033;-76
2023/02/28 05:37:27;;;;;;;12.75;4.32;;;;;;;-1.81;100.00;99511.16;4952549;29;20027;-77
2023/02/28 05:39:52;;;;;;;7.25;3.83;;;;;;;-1.88;100.00;99507.28;4945667;28;20602;-77
2023/02/28 05:42:18;;;;;;;8.00;3.80;;;;;;;-2.01;100.00;99486.91;4936420;29;20024;-78
2023/02/28 05:44:43;;;;;;;6.88;3.45;;;;;;;-1.92;100.00;99495.16;4954266;28;20027;-76
2023/02/28 05:47:08;;;;;;;6.70;3.80;;;;;;;-1.86;100.00;99508.88;4949941;28;20100;-77
2023/02/28 05:49:34;;;;;;;11.55;3.90;;;;;;;-1.93;100.00;99507.59;4948259;28;20019;-74
2023/02/28 05:51:59;;;;;;;7.97;3.78;;;;;;;-1.85;100.00;99505.25;4942291;29;20100;-73
2023/02/28 05:54:25;;;;;;;10.70;4.40;;;;;;;-1.88;100.00;99507.28;4984284;28;20031;-73
2023/02/28 05:56:50;;;;;;;11.25;4.03;;;;;;;-1.86;100.00;99526.56;4946557;28;20038;-72
2023/02/28 05:59:15;;;;;;;10.35;3.97;;;;;;;-1.87;100.00;99512.44;4986355;28;20038;-72
2023/02/28 06:01:47;;;;;;;9.23;3.97;;;;;;;-1.83;100.00;99516.59;4951664;28;20531;-78
2023/02/28 06:04:17;;;;;;;16.40;4.75;;;;;;;-1.79;100.00;99527.84;4947854;28;20023;-72
2023/02/28 06:06:46;;;;;;;8.07;4.38;;;;;;;-1.77;100.00;99528.59;4946934;29;20024;-72
2023/02/28 06:09:12;;;;;;;;;;;;;;;-1.82;100.00;99534.19;5012280;28;20505;-74
2023/02/28 06:11:37;;;;;;;8.38;4.10;;;;;;;-1.84;100.00;99520.19;5000008;28;19910;-75
2023/02/28 06:14:04;;;;;;;7.43;3.92;;;;;;;-1.82;100.00;99517.44;4953810;29;20039;-74
2023/02/28 06:16:31;;;;;;;8.20;4.25;;;;;;;-1.75;100.00;99539.94;4966497;28;20051;-74
2023/02/28 06:18:58;;;;;;;7.63;3.80;;;;;;;-1.83;100.00;99542.28;4942202;29;20030;-76
2023/02/28 06:21:24;;;;;;;9.27;4.05;;;;;;;-1.85;100.00;99529.13;4949515;28;20031;-72
2023/02/28 06:23:49;;;;;;;9.38;4.22;;;;;;;-1.86;100.00;99542.47;4944135;28;20038;-71
2023/02/28 06:26:15;;;;;;;9.77;3.65;;;;;;;-1.90;100.00;99530.41;4952495;28;20089;-72
2023/02/28 06:28:40;;;;;;;8.57;4.05;;;;;;;-1.90;100.00;99525.94;4954029;29;20492;-76
2023/02/28 06:31:12;;;;;;;8.20;3.88;;;;;;;-1.81;100.00;99545.66;4943113;28;20126;-75
2023/02/28 06:33:38;;;;;;;9.73;4.50;;;;;;;-1.84;100.00;99524.66;4952634;28;20027;-75
2023/02/28 06:36:05;;;;;;;14.57;4.63;;;;;;;-1.69;100.00;99544.81;4950564;28;20104;-75
2023/02/28 06:38:31;;;;;;;10.50;4.40;;;;;;;-1.66;100.00;99539.28;4954573;28;20030;-76
2023/02/28 06:40:58;;;;;;;10.60;4.72;;;;;;;-1.57;100.00;99543.09;4953514;29;20433;-75
2023/02/28 06:43:24;;;;;;;14.77;4.18;;;;;;;-1.56;100.00;99550.09;4952595;28;20031;-75
2023/02/28 06:45:50;;;;;;;8.23;4.15;;;;;;;-1.44;100.00;99551.91;4944513;29;20036;-76
2023/02/28 06:48:15;;;;;;;7.95;4.03;;;;;;;-1.49;100.00;99558.47;4941337;29;20476;-73
2023/02/28 06:50:40;;;;;;;8.93;4.40;;;;;;;-1.45;100.00;99558.16;4942379;29;20489;-76
2023/02/28 06:53:06;;;;;;;7.43;3.70;;;;;;;-1.39;100.00;99546.25;4935162;29;20027;-79
2023/02/28 06:55:31;;;;;;;6.82;3.90;;;;;;;-1.30;100.00;99564.19;4934438;29;20035;-76
2023/02/28 06:57:57;;;;;;;8.13;4.57;;;;;;;-1.37;100.00;99549.63;4943681;29;20070;-76
2023/02/28 07:00:24;;;;;;;8.80;4.20;;;;;;;-1.33;100.00;99557.28;4956699;28;20027;-77
2023/02/28 07:02:50;;;;;;;8.65;3.95;;;;;;;-1.29;100.00;99557.06;4951986;28;20027;-76
2023/02/28 07:05:15;;;;;;;10.30;4.13;;;;;;;-1.29;100.00;99547.28;4941415;28;20527;-76
2023/02/28 07:07:43;;;;;;;8.77;4.35;;;;;;;-1.09;100.00;99574.22;4934222;29;20027;-76
2023/02/28 07:10:11;;;;;;;9.00;4.68;;;;;;;-1.04;100.00;99574.75;4962263;28;20028;-77
2023/02/28 07:12:37;;;;;;;9.32;4.57;;;;;;;-0.98;100.00;99550.38;4958189;29;20035;-77
2023/02/28 07:15:04;;;;;;;7.32;3.90;;;;;;;-0.79;100.00;99566.66;4962458;28;20091;-77
2023/02/28 07:17:29;;;;;;;7.97;4.03;;;;;;;-0.63;100.00;99568.19;4955552;29;20008;-77
2023/02/28 07:19:55;;;;;;;8.15;4.55;;;;;;;-0.66;100.00;99550.69;4970554;29;20019;-77
2023/02/28 07:22:20;;;;;;;13.48;5.35;;;;;;;-0.41;100.00;99565.66;4981660;28;20114;-79
2023/02/28 07:24:45;;;;;;;8.20;4.70;;;;;;;-0.42;100.00;99569.25;4954840;28;20030;-78
2023/02/28 07:27:11;;;;;;;11.70;5.18;;;;;;;-0.18;100.00;99565.72;4950407;29;20023;-79
2023/02/28 07:29:37;;;;;;;8.95;4.25;;;;;;;0.25;100.00;99581.91;4956453;28;20057;-77
2023/02/28 07:32:02;;;;;;;10.07;4.90;;;;;;;0.82;100.00;99572.97;4954028;28;20085;-77
2023/02/28 07:34:28;;;;;;;8.77;4.00;;;;;;;0.71;100.00;99580.13;4953628;28;20031;-77
2023/02/28 07:36:53;;;;;;;11.02;4.88;;;;;;;0.67;100.00;99578.69;4951891;28;20027;-78
2023/02/28 07:39:20;;;;;;;8.27;5.13;;;;;;;0.44;100.00;99568.00;4943415;28;20031;-78
2023/02/28 07:41:45;;;;;;;12.90;5.97;;;;;;;0.49;100.00;99588.97;4943948;28;20034;-78
2023/02/28 07:44:11;;;;;;;13.43;5.07;;;;;;;0.97;100.00;99584.25;4936179;28;20028;-78
2023/02/28 07:46:36;;;;;;;12.05;4.90;;;;;;;1.85;100.00;99571.72;4941500;28;20160;-78
2023/02/28 07:49:02;;;;;;;7.45;4.68;;;;;;;2.27;100.00;99588.59;4947678;29;20103;-78
2023/02/28 07:51:29;;;;;;;9.07;5.10;;;;;;;2.53;100.00;99588.19;4958382;28;20037;-77
2023/02/28 07:53:55;;;;;;;9.38;4.60;;;;;;;2.97;100.00;99586.97;4964781;28;20039;-77
2023/02/28 07:56:20;;;;;;;12.55;4.47;;;;;;;4.00;92.44;99596.38;4950346;28;20023;-76
2023/02/28 07:58:46;;;;;;;9.35;4.50;;;;;;;4.61;84.85;99582.63;4950015;28;20031;-76
2023/02/28 08:01:11;;;;;;;7.35;4.35;;;;;;;3.92;80.77;99575.69;4949098;29;20032;-79
2023/02/28 08:03:38;;;;;;;9.00;4.75;;;;;;;4.22;81.12;99576.50;4964676;23;20554;-75
2023/02/28 08:06:05;;;;;;;19.23;5.10;;;;;;;4.24;81.55;99581.72;4948618;28;20028;-75
2023/02/28 08:08:31;;;;;;;9.63;4.80;;;;;;;3.42;80.78;99551.72;4954989;28;20022;-76
2023/02/28 08:11:00;;;;;;;8.98;4.88;;;;;;;3.70;81.47;99573.31;4998553;28;20031;-76
2023/02/28 08:13:27;;;;;;;10.13;5.35;;;;;;;4.16;81.06;99567.19;4953178;29;20033;-77
2023/02/28 08:15:53;;;;;;;9.10;5.28;;;;;;;4.86;76.10;99579.41;4960320;28;20022;-79
2023/02/28 08:18:18;;;;;;;8.50;5.07;;;;;;;4.84;74.22;99568.84;4947846;28;20076;-79
2023/02/28 08:20:44;;;;;;;9.75;4.93;;;;;;;5.46;70.50;99569.91;4941155;29;21481;-79
2023/02/28 08:23:09;;;;;;;7.82;4.80;;;;;;;7.61;65.38;99569.25;4951094;28;20024;-79
2023/02/28 08:25:34;;;;;;;8.65;4.85;;;;;;;7.89;61.02;99558.19;4949659;28;20571;-76
2023/02/28 08:28:00;;;;;;;10.05;5.50;;;;;;;9.10;57.38;99560.00;4951086;28;20036;-78
2023/02/28 08:30:32;;;;;;;9.40;5.65;;;;;;;9.38;54.50;99512.63;4946862;28;20003;-81
2023/02/28 08:32:57;;;;;;;6.72;4.55;;;;;;;11.28;50.71;99572.03;4942589;28;20119;-80
2023/02/28 08:35:23;;;;;;;11.70;5.00;;;;;;;11.96;47.96;99540.94;4949338;28;20054;-77
2023/02/28 08:37:49;;;;;;;12.65;5.15;;;;;;;12.01;46.89;99522.19;4947817;28;20221;-79
2023/02/28 08:40:17;;;;;;;14.57;5.43;;;;;;;11.64;45.24;99561.22;4946826;28;20077;-76
2023/02/28 08:42:47;;;;;;;9.50;4.85;;;;;;;12.38;45.19;99550.06;4951723;29;20026;-81
2023/02/28 08:45:13;;;;;;;;;;;;;;;13.53;43.61;99570.38;4946064;28;20027;-76
2023/02/28 08:47:38;;;;;;;9.18;5.28;;;;;;;13.74;42.03;99542.22;4945128;28;19929;-80
2023/02/28 08:50:05;;;;;;;11.57;5.75;;;;;;;13.94;41.69;99563.19;4948859;28;20026;-75
2023/02/28 08:52:30;;;;;;;11.23;5.15;;;;;;;14.24;40.98;99559.00;4944145;28;20481;-74
2023/02/28 08:54:55;;;;;;;24.83;6.50;;;;;;;15.34;39.09;99553.81;4951401;28;20066;-76
2023/02/28 08:57:21;;;;;;;10.07;5.03;;;;;;;15.15;38.92;99557.47;4949460;28;20019;-74
2023/02/28 08:59:46;;;;;;;7.90;4.93;;;;;;;12.85;40.12;99559.38;4948655;28;20031;-75
2023/02/28 09:02:15;;;;;;;7.85;4.97;;;;;;;13.49;40.14;99571.00;4940725;28;20035;-71
2023/02/28 09:04:41;;;;;;;8.77;5.27;;;;;;;13.82;39.82;99561.06;4982080;28;20053;-75
2023/02/28 09:07:07;;;;;;;11.38;5.32;;;;;;;14.67;39.22;99546.88;4978095;28;20031;-76
2023/02/28 09:09:32;;;;;;;7.05;4.85;;;;;;;15.82;38.14;99562.66;4959794;28;20455;-72
2023/02/28 09:11:59;;;;;;;8.55;5.28;;;;;;;15.69;37.12;99561.69;4943500;28;20130;-72
2023/02/28 09:14:24;;;;;;;8.88;5.30;;;;;;;14.15;37.33;99554.84;4941242;28;20055;-69
2023/02/28 09:16:49;;;;;;;8.10;4.93;;;;;;;14.21;38.18;99564.88;4976131;28;20050;-69
2023/02/28 09:19:15;;;;;;;13.48;6.35;;;;;;;14.57;38.24;99562.84;4938183;28;20062;-69
2023/02/28 09:21:40;;;;;;;9.85;5.88;;;;;;;14.59;37.95;99553.41;4943592;28;20031;-79
2023/02/28 09:24:07;;;;;;;9.75;6.35;;;;;;;13.33;38.43;99539.56;4979382;28;20546;-80
2023/02/28 09:26:33;;;;;;;8.80;5.38;;;;;;;14.39;38.70;99561.53;4947953;29;20389;-78
2023/02/28 09:28:59;;;;;;;10.90;5.78;;;;;;;13.65;38.44;99564.34;4935999;28;20028;-79
2023/02/28 09:31:27;;;;;;;10.88;6.47;;;;;;;13.38;38.36;99564.25;4957124;28;20510;-81
2023/02/28 09:33:55;;;;;;;12.02;5.75;;;;;;;11.83;40.84;99557.03;4946889;28;20103;-84
2023/02/28 09:36:22;;;;;;;9.88;5.68;;;;;;;10.29;43.51;99586.63;4960293;28;20031;-85
2023/02/28 09:38:49;;;;;;;9.57;5.68;;;;;;;8.95;45.14;99544.53;4940018;28;20028;-81
2023/02/28 09:41:21;;;;;;;9.88;6.10;;;;;;;8.92;45.68;99577.28;4954298;28;20035;-78
2023/02/28 09:43:55;;;;;;;9.25;5.38;;;;;;;7.96;47.85;99578.03;4939128;29;20086;-77
2023/02/28 09:46:40;;;;;;;11.00;5.65;;;;;;;7.97;48.65;99550.09;4950391;28;20050;-78
2023/02/28 09:49:23;;;;;;;8.15;5.38;;;;;;;6.93;51.01;99572.06;4958246;28;20031;-79
2023/02/28 09:51:56;;;;;;;9.68;5.95;;;;;;;7.81;50.37;99590.50;4940091;29;20035;-77
2023/02/28 09:54:24;;;;;;;20.25;6.35;;;;;;;8.17;49.54;99579.38;4946225;29;20468;-81
2023/02/28 09:56:55;;;;;;;10.07;5.45;;;;;;;7.08;50.71;99565.06;4957789;28;20126;-80
2023/02/28 09:59:29;;;;;;;11.57;5.60;;;;;;;7.00;51.59;99600.84;5018633;28;20030;-82
2023/02/28 10:02:13;;;;;;;8.73;5.53;;;;;;;6.76;51.95;99576.53;4993965;28;20027;-76
2023/02/28 10:04:57;;;;;;;10.45;5.80;;;;;;;6.75;52.22;99572.97;4954346;28;20547;-78
2023/02/28 10:07:41;;;;;;;21.05;5.47;;;;;;;6.22;53.22;99587.41;4951420;28;20023;-77
2023/02/28 10:10:20;;;;;;;7.80;5.38;;;;;;;7.44;51.14;99562.13;4957840;28;20684;-73
2023/02/28 10:12:47;;;;;;;9.13;5.38;;;;;;;8.84;48.96;99574.59;4946385;28;20027;-75
2023/02/28 10:15:17;;;;;;;8.63;5.55;;;;;;;7.98;49.30;99576.03;4941221;28;20035;-70
2023/02/28 10:17:47;;;;;;;9.05;5.65;;;;;;;7.61;50.82;99582.72;4935046;29;20028;-70
2023/02/28 10:20:19;;;;;;;8.98;5.43;;;;;;;8.89;49.00;99580.31;4946520;28;20382;-69
2023/02/28 10:22:51;;;;;;;12.48;5.50;;;;;;;10.23;46.79;99584.63;4961249;28;20028;-70
2023/02/28 10:25:23;;;;;;;8.65;5.50;;;;;;;9.79;45.64;99585.28;4936790;29;20058;-70
2023/02/28 10:27:53;;;;;;;9.20;5.40;;;;;;;10.30;45.58;99580.19;4933187;29;20028;-70
2023/02/28 10:30:18;;;;;;;9.02;5.55;;;;;;;10.56;45.45;99595.19;4933057;29;20066;-70
2023/02/28 10:32:50;;;;;;;9.07;5.72;;;;;;;12.53;41.78;99587.13;4947282;28;20078;-71
2023/02/28 10:35:21;;;;;;;9.18;5.53;;;;;;;13.77;39.95;99569.00;4938236;28;20338;-71
2023/02/28 10:37:49;;;;;;;8.50;5.38;;;;;;;14.15;38.29;99568.44;4947280;28;20123;-69
2023/02/28 10:40:17;;;;;;;9.57;5.30;;;;;;;14.97;38.14;99590.84;4947550;29;20081;-69
2023/02/28 10:42:54;;;;;;;8.30;5.60;;;;;;;16.27;36.06;99577.06;4948583;28;20077;-69
2023/02/28 10:45:19;;;;;;;11.63;5.40;;;;;;;16.67;35.00;99584.91;4934101;28;20756;-69
2023/02/28 10:47:57;;;;;;;8.82;5.45;;;;;;;16.23;34.91;99578.53;4942174;29;20023;-69
2023/02/28 10:50:30;;;;;;;7.20;5.57;;;;;;;16.78;35.01;99576.00;4944683;28;20443;-69
2023/02/28 10:53:10;;;;;;;6.05;4.40;;;;;;;15.29;36.22;99578.16;4939450;28;20027;-68
2023/02/28 10:55:36;;;;;;;7.75;5.53;;;;;;;11.94;39.67;99589.09;4943386;28;20485;-68
2023/02/28 10:58:01;;;;;;;10.38;5.63;;;;;;;10.61;41.62;99590.06;4941510;29;20023;-68
2023/02/28 11:00:34;;;;;;;8.70;5.65;;;;;;;9.82;43.85;99598.47;4937076;28;20480;-67
2023/02/28 11:02:59;;;;;;;17.27;6.40;;;;;;;10.01;44.62;99597.13;4952906;28;20027;-70
2023/02/28 11:05:35;;;;;;;12.52;6.10;;;;;;;11.53;42.64;99575.28;4947912;28;20104;-70
2023/02/28 11:08:14;;;;;;;9.73;5.63;;;;;;;11.84;40.73;99564.13;4936713;28;20047;-70
2023/02/28 11:10:46;;;;;;;14.35;5.80;;;;;;;12.50;40.24;99562.06;4934812;29;20493;-69
2023/02/28 11:13:24;;;;;;;11.63;5.50;;;;;;;14.60;38.74;99568.69;4952516;29;20035;-69
2023/02/28 11:15:58;;;;;;;9.63;5.60;;;;;;;16.55;36.05;99553.91;4948605;28;20373;-69
2023/02/28 11:18:42;;;;;;;9.35;5.13;;;;;;;17.26;34.28;99538.91;4940398;29;20488;-67
2023/02/28 11:21:09;;;;;;;9.15;5.85;;;;;;;13.51;37.52;99563.47;4942410;28;20404;-66
2023/02/28 11:23:37;;;;;;;8.52;5.68;;;;;;;10.75;40.81;99559.47;4944861;28;20059;-67
2023/02/28 11:26:10;;;;;;;10.23;5.70;;;;;;;10.01;43.09;99585.50;4939136;28;20110;-69
2023/02/28 11:28:38;;;;;;;11.13;5.88;;;;;;;9.70;44.99;99572.03;4948509;29;20035;-69
2023/02/28 11:31:13;;;;;;;9.13;5.50;;;;;;;9.68;44.92;99572.19;4952398;28;20042;-69
2023/02/28 11:33:45;;;;;;;8.32;5.65;;;;;;;10.31;44.10;99568.34;4947663;28;20027;-70
2023/02/28 11:36:26;;;;;;;9.32;5.95;;;;;;;14.36;39.14;99544.81;4942420;28;20074;-69
2023/02/28 11:38:54;;;;;;;10.70;6.10;;;;;;;15.89;36.59;99523.34;4941953;28;20031;-66